createdAt,value
2022-11-25T00:01:33.680Z,101209.53
2022-11-25T00:04:02.174Z,101215.34
2022-11-25T00:06:32.818Z,101220.28
2022-11-25T00:09:12.641Z,101213.25
2022-11-25T00:11:42.536Z,101215.41
2022-11-25T00:14:15.162Z,101215.00
2022-11-25T00:16:48.035Z,101211.44
2022-11-25T00:19:17.235Z,101209.41
2022-11-25T00:21:45.581Z,101205.50
2022-11-25T00:24:15.049Z,101201.66
2022-11-25T00:26:42.871Z,101199.78
2022-11-25T00:29:12.154Z,101207.38
2022-11-25T00:31:41.130Z,101201.91
2022-11-25T00:34:13.505Z,101198.19
2022-11-25T00:36:41.427Z,101202.38
2022-11-25T00:39:14.933Z,101194.03
2022-11-25T00:42:02.741Z,101196.25
2022-11-25T00:44:38.086Z,101188.09
2022-11-25T00:47:08.773Z,101196.72
2022-11-25T00:49:37.353Z,101181.25
2022-11-25T00:52:05.104Z,101185.63
2022-11-25T00:54:34.003Z,101191.81
2022-11-25T00:57:02.314Z,101195.66
2022-11-25T00:59:30.929Z,101206.69
2022-11-25T01:02:00.270Z,101199.44
2022-11-25T01:04:27.942Z,101205.75
2022-11-25T01:06:56.974Z,101214.38
2022-11-25T01:09:25.571Z,101212.75
2022-11-25T01:11:53.424Z,101217.50
2022-11-25T01:14:22.684Z,101226.28
2022-11-25T01:16:52.281Z,101235.59
2022-11-25T01:19:20.218Z,101237.13
2022-11-25T01:21:47.911Z,101229.03
2022-11-25T01:24:16.854Z,101233.97
2022-11-25T01:26:45.340Z,101236.84
2022-11-25T01:29:15.994Z,101239.06
2022-11-25T01:31:45.572Z,101242.31
2022-11-25T01:34:22.097Z,101238.81
2022-11-25T01:36:49.978Z,101242.56
2022-11-25T01:39:25.597Z,101258.09
2022-11-25T01:41:58.214Z,101261.88
2022-11-25T01:44:31.365Z,101274.97
2022-11-25T01:47:25.666Z,101269.94
2022-11-25T01:50:03.652Z,101266.97
2022-11-25T01:52:36.701Z,101264.06
2022-11-25T01:55:15.881Z,101284.75
2022-11-25T01:57:54.946Z,101280.44
2022-11-25T02:00:25.706Z,101284.09
2022-11-25T02:02:55.459Z,101293.72
2022-11-25T02:05:34.058Z,101289.06
2022-11-25T02:08:02.798Z,101294.38
2022-11-25T02:10:32.734Z,101291.75
2022-11-25T02:13:00.851Z,101293.84
2022-11-25T02:15:31.463Z,101288.69
2022-11-25T02:17:59.233Z,101295.47
2022-11-25T02:20:27.956Z,101292.72
2022-11-25T02:23:16.976Z,101306.59
2022-11-25T02:25:47.905Z,101310.72
2022-11-25T02:28:30.566Z,101315.69
2022-11-25T02:30:59.140Z,101311.69
2022-11-25T02:33:27.955Z,101315.47
2022-11-25T02:36:00.037Z,101311.81
2022-11-25T02:38:40.919Z,101313.16
2022-11-25T02:41:16.469Z,101314.25
2022-11-25T02:43:47.286Z,101315.81
2022-11-25T02:46:21.878Z,101312.13
2022-11-25T02:49:09.900Z,101307.44
2022-11-25T02:51:41.383Z,101301.69
2022-11-25T02:54:11.077Z,101302.97
2022-11-25T02:56:40.268Z,101299.63
2022-11-25T02:59:09.622Z,101297.19
2022-11-25T03:01:39.534Z,101300.69
2022-11-25T03:04:09.528Z,101306.16
2022-11-25T03:06:37.255Z,101315.38
2022-11-25T03:09:04.885Z,101311.66
2022-11-25T03:11:51.344Z,101320.16
2022-11-25T03:14:21.293Z,101317.59
2022-11-25T03:16:49.116Z,101320.31
2022-11-25T03:19:17.206Z,101323.94
2022-11-25T03:21:45.382Z,101329.63
2022-11-25T03:24:12.907Z,101344.22
2022-11-25T03:26:40.610Z,101346.13
2022-11-25T03:29:08.886Z,101352.06
2022-11-25T03:31:36.822Z,101350.06
2022-11-25T03:34:04.424Z,101343.69
2022-11-25T03:36:32.163Z,101347.44
2022-11-25T03:39:00.107Z,101345.31
2022-11-25T03:41:29.027Z,101347.91
2022-11-25T03:43:58.016Z,101356.53
2022-11-25T03:46:26.170Z,101362.47
2022-11-25T03:48:55.496Z,101363.44
2022-11-25T03:51:24.125Z,101360.25
2022-11-25T03:53:53.066Z,101365.75
2022-11-25T03:56:20.832Z,101358.78
2022-11-25T03:58:48.426Z,101358.00
2022-11-25T04:01:16.899Z,101353.38
2022-11-25T04:03:45.830Z,101351.22
2022-11-25T04:06:14.518Z,101346.84
2022-11-25T04:08:42.961Z,101351.31
2022-11-25T04:11:11.491Z,101353.44
2022-11-25T04:13:44.363Z,101355.94
2022-11-25T04:16:30.386Z,101352.00
2022-11-25T04:18:57.944Z,101346.47
2022-11-25T04:21:26.219Z,101343.72
2022-11-25T04:23:54.355Z,101346.22
2022-11-25T04:26:22.256Z,101350.59
2022-11-25T04:28:52.638Z,101349.50
2022-11-25T04:31:21.292Z,101354.84
2022-11-25T04:33:52.556Z,101347.88
2022-11-25T04:36:24.184Z,101353.56
2022-11-25T04:38:52.193Z,101372.16
2022-11-25T04:41:22.719Z,101368.50
2022-11-25T04:43:50.728Z,101374.47
2022-11-25T04:46:23.094Z,101365.75
2022-11-25T04:48:51.816Z,101368.19
2022-11-25T04:51:20.725Z,101364.00
2022-11-25T04:53:53.189Z,101359.81
2022-11-25T04:56:23.265Z,101356.91
2022-11-25T04:59:12.279Z,101348.03
2022-11-25T05:01:44.812Z,101339.56
2022-11-25T05:04:28.920Z,101330.09
2022-11-25T05:06:57.085Z,101311.19
2022-11-25T05:09:25.877Z,101315.75
2022-11-25T05:12:29.786Z,101334.84
2022-11-25T05:14:59.073Z,101336.28
2022-11-25T05:17:30.162Z,101326.69
2022-11-25T05:19:58.997Z,101332.72
2022-11-25T05:22:30.082Z,101332.22
2022-11-25T05:24:58.439Z,101345.88
2022-11-25T05:27:27.686Z,101348.78
2022-11-25T05:29:57.864Z,101349.19
2022-11-25T05:32:25.974Z,101346.66
2022-11-25T05:34:57.353Z,101333.50
2022-11-25T05:37:25.666Z,101332.72
2022-11-25T05:40:03.723Z,101335.38
2022-11-25T05:42:34.368Z,101339.94
2022-11-25T05:45:05.854Z,101335.56
2022-11-25T05:47:36.769Z,101336.47
2022-11-25T05:50:06.606Z,101337.34
2022-11-25T05:52:34.588Z,101335.75
2022-11-25T05:55:02.632Z,101335.25
2022-11-25T05:57:31.336Z,101338.00
2022-11-25T06:00:07.407Z,101343.63
2022-11-25T06:02:51.567Z,101338.97
2022-11-25T06:05:20.763Z,101346.72
2022-11-25T06:07:49.332Z,101350.38
2022-11-25T06:10:17.979Z,101366.41
2022-11-25T06:12:45.767Z,101363.75
2022-11-25T06:15:15.516Z,101373.97
2022-11-25T06:17:43.404Z,101374.81
2022-11-25T06:20:17.446Z,101371.84
2022-11-25T06:22:46.477Z,101376.16
2022-11-25T06:25:14.230Z,101365.03
2022-11-25T06:28:11.336Z,101371.81
2022-11-25T06:30:31.202Z,101376.31
2022-11-25T06:33:14.706Z,101375.38
2022-11-25T06:35:45.928Z,101374.31
2022-11-25T06:38:13.453Z,101372.91
2022-11-25T06:40:40.987Z,101377.38
2022-11-25T06:43:08.569Z,101375.88
2022-11-25T06:45:36.106Z,101388.53
2022-11-25T06:48:04.549Z,101395.06
2022-11-25T06:50:33.248Z,101388.84
2022-11-25T06:53:01.965Z,101390.53
2022-11-25T06:55:30.016Z,101391.72
2022-11-25T06:58:13.920Z,101399.19
2022-11-25T07:00:45.699Z,101405.25
2022-11-25T07:03:13.725Z,101411.66
2022-11-25T07:05:41.338Z,101415.50
2022-11-25T07:08:09.287Z,101416.09
2022-11-25T07:10:36.940Z,101416.16
2022-11-25T07:13:04.802Z,101421.84
2022-11-25T07:15:34.825Z,101426.38
2022-11-25T07:18:02.455Z,101428.03
2022-11-25T07:20:30.789Z,101420.75
2022-11-25T07:22:58.812Z,101421.72
2022-11-25T07:25:30.706Z,101419.91
2022-11-25T07:27:59.819Z,101418.59
2022-11-25T07:31:21.754Z,101416.41
2022-11-25T07:33:15.304Z,101416.59
2022-11-25T07:35:43.020Z,101425.00
2022-11-25T07:38:11.156Z,101422.97
2022-11-25T07:40:39.537Z,101426.25
2022-11-25T07:43:07.161Z,101424.84
2022-11-25T07:45:35.486Z,101421.41
2022-11-25T07:48:08.959Z,101425.25
2022-11-25T07:50:38.613Z,101432.06
2022-11-25T07:53:06.568Z,101427.13
2022-11-25T07:55:34.544Z,101428.53
2022-11-25T07:58:02.472Z,101427.41
2022-11-25T08:00:30.019Z,101428.19
2022-11-25T08:02:58.069Z,101426.84
2022-11-25T08:05:25.666Z,101418.25
2022-11-25T08:07:53.781Z,101428.91
2022-11-25T08:10:21.386Z,101418.13
2022-11-25T08:12:49.312Z,101423.38
2022-11-25T08:15:16.998Z,101430.88
2022-11-25T08:17:44.602Z,101425.91
2022-11-25T08:20:12.489Z,101429.09
2022-11-25T08:22:39.985Z,101429.00
2022-11-25T08:25:08.373Z,101438.50
2022-11-25T08:27:35.890Z,101433.56
2022-11-25T08:30:03.989Z,101449.06
2022-11-25T08:32:31.759Z,101446.09
2022-11-25T08:34:59.311Z,101446.78
2022-11-25T08:37:26.955Z,101442.13
2022-11-25T08:39:55.132Z,101440.13
2022-11-25T08:42:23.567Z,101440.75
2022-11-25T08:44:55.580Z,101437.00
2022-11-25T08:47:23.794Z,101442.81
2022-11-25T08:49:52.528Z,101444.31
2022-11-25T08:52:21.530Z,101443.91
2022-11-25T08:54:49.720Z,101430.28
2022-11-25T08:57:17.386Z,101427.00
2022-11-25T08:59:45.158Z,101428.50
2022-11-25T09:02:15.774Z,101428.09
2022-11-25T09:04:43.841Z,101424.84
2022-11-25T09:07:11.521Z,101428.97
2022-11-25T09:09:39.464Z,101426.44
2022-11-25T09:12:07.398Z,101425.44
2022-11-25T09:14:35.003Z,101418.56
2022-11-25T09:17:03.771Z,101415.56
2022-11-25T09:19:31.569Z,101415.44
2022-11-25T09:21:59.072Z,101416.63
2022-11-25T09:24:26.770Z,101415.06
2022-11-25T09:26:54.856Z,101429.47
2022-11-25T09:29:22.519Z,101424.00
2022-11-25T09:31:54.786Z,101422.19
2022-11-25T09:34:22.812Z,101427.69
2022-11-25T09:36:50.570Z,101419.84
2022-11-25T09:39:18.477Z,101422.81
2022-11-25T09:42:26.503Z,101418.56
2022-11-25T09:45:18.846Z,101425.88
2022-11-25T09:48:14.190Z,101417.63
2022-11-25T09:51:18.822Z,101417.84
2022-11-25T09:54:13.387Z,101426.03
2022-11-25T09:56:40.873Z,101424.13
2022-11-25T09:59:18.518Z,101426.25
2022-11-25T10:02:01.383Z,101420.59
2022-11-25T10:04:46.871Z,101425.13
2022-11-25T10:07:33.292Z,101419.97
2022-11-25T10:10:04.445Z,101420.81
2022-11-25T10:12:40.703Z,101420.09
2022-11-25T10:15:19.065Z,101413.84
2022-11-25T10:17:51.143Z,101414.41
2022-11-25T10:20:26.679Z,101416.63
2022-11-25T10:23:09.891Z,101405.53
2022-11-25T10:25:46.098Z,101416.69
2022-11-25T10:28:31.748Z,101404.34
2022-11-25T10:31:18.132Z,101412.25
2022-11-25T10:33:49.542Z,101408.66
2022-11-25T10:36:23.118Z,101407.81
2022-11-25T10:38:59.313Z,101402.88
2022-11-25T10:41:36.014Z,101411.06
2022-11-25T10:44:04.049Z,101410.44
2022-11-25T10:47:12.216Z,101403.50
2022-11-25T10:50:10.034Z,101389.47
2022-11-25T10:53:03.438Z,101397.19
2022-11-25T10:55:33.775Z,101395.25
2022-11-25T10:58:29.144Z,101397.72
2022-11-25T11:01:25.470Z,101393.25
2022-11-25T11:04:02.927Z,101392.22
2022-11-25T11:06:36.455Z,101388.13
2022-11-25T11:09:05.041Z,101386.47
2022-11-25T11:11:33.345Z,101379.03
2022-11-25T11:14:21.083Z,101372.09
2022-11-25T11:16:57.102Z,101371.78
2022-11-25T11:19:31.068Z,101371.19
2022-11-25T11:22:16.596Z,101368.28
2022-11-25T11:24:44.116Z,101363.13
2022-11-25T11:27:25.852Z,101358.22
2022-11-25T11:30:24.708Z,101351.72
2022-11-25T11:33:05.386Z,101354.38
2022-11-25T11:35:42.010Z,101350.88
2022-11-25T11:38:19.167Z,101347.72
2022-11-25T11:40:53.158Z,101344.94
2022-11-25T11:43:32.683Z,101349.50
2022-11-25T11:46:03.542Z,101350.69
2022-11-25T11:49:03.021Z,101352.66
2022-11-25T11:51:46.398Z,101351.13
2022-11-25T11:54:26.203Z,101347.59
2022-11-25T11:57:02.601Z,101352.22
2022-11-25T11:59:40.216Z,101345.44
2022-11-25T12:02:22.782Z,101347.28
2022-11-25T12:05:00.401Z,101348.84
2022-11-25T12:07:41.682Z,101341.41
2022-11-25T12:10:15.389Z,101342.41
2022-11-25T12:13:05.975Z,101336.56
2022-11-25T12:15:43.371Z,101332.34
2022-11-25T12:18:31.644Z,101335.66
2022-11-25T12:21:19.013Z,101336.56
2022-11-25T12:23:59.133Z,101323.00
2022-11-25T12:26:45.394Z,101328.59
2022-11-25T12:29:22.022Z,101329.41
2022-11-25T12:32:22.863Z,101330.41
2022-11-25T12:34:59.319Z,101329.38
2022-11-25T12:37:40.079Z,101332.44
2022-11-25T12:40:15.128Z,101328.75
2022-11-25T12:42:45.403Z,101332.28
2022-11-25T12:45:22.736Z,101333.13
2022-11-25T12:47:51.469Z,101332.63
2022-11-25T12:50:31.766Z,101335.41
2022-11-25T12:53:09.156Z,101324.81
2022-11-25T12:55:39.401Z,101332.31
2022-11-25T12:58:25.303Z,101325.59
2022-11-25T13:01:07.227Z,101320.34
2022-11-25T13:04:13.668Z,101318.41
2022-11-25T13:06:44.307Z,101313.63
2022-11-25T13:09:23.913Z,101310.81
2022-11-25T13:12:30.407Z,101306.75
2022-11-25T13:15:23.804Z,101314.03
2022-11-25T13:17:57.657Z,101312.91
2022-11-25T13:20:28.075Z,101302.56
2022-11-25T13:23:08.225Z,101309.28
2022-11-25T13:25:37.933Z,101308.56
2022-11-25T13:28:25.055Z,101313.19
2022-11-25T13:30:53.578Z,101306.50
2022-11-25T13:33:24.448Z,101317.84
2022-11-25T13:35:56.098Z,101326.28
2022-11-25T13:38:29.665Z,101323.16
2022-11-25T13:41:22.903Z,101318.03
2022-11-25T13:43:53.878Z,101318.47
2022-11-25T13:46:42.323Z,101313.97
2022-11-25T13:49:50.379Z,101306.97
2022-11-25T13:52:18.673Z,101308.16
2022-11-25T13:54:55.701Z,101310.59
2022-11-25T13:57:30.462Z,101313.56
2022-11-25T14:00:10.301Z,101319.72
2022-11-25T14:02:49.680Z,101318.53
2022-11-25T14:05:58.381Z,101321.19
2022-11-25T14:08:59.888Z,101328.75
2022-11-25T14:11:37.281Z,101333.47
2022-11-25T14:14:12.391Z,101332.09
2022-11-25T14:16:58.912Z,101329.94
2022-11-25T14:19:58.403Z,101338.13
2022-11-25T14:22:45.380Z,101335.81
2022-11-25T14:25:13.246Z,101338.81
2022-11-25T14:27:48.018Z,101335.13
2022-11-25T14:30:17.773Z,101327.91
2022-11-25T14:32:57.771Z,101319.28
2022-11-25T14:35:40.159Z,101324.34
2022-11-25T14:38:20.959Z,101325.06
2022-11-25T14:41:32.996Z,101326.53
2022-11-25T14:44:13.259Z,101332.47
2022-11-25T14:47:03.998Z,101339.47
2022-11-25T14:50:05.284Z,101342.84
2022-11-25T14:52:37.384Z,101341.66
2022-11-25T14:55:07.151Z,101347.16
2022-11-25T14:57:38.642Z,101342.13
2022-11-25T15:00:09.469Z,101350.50
2022-11-25T15:02:41.882Z,101347.75
2022-11-25T15:05:22.679Z,101341.22
2022-11-25T15:08:15.653Z,101333.41
2022-11-25T15:10:59.266Z,101343.63
2022-11-25T15:13:39.286Z,101345.13
2022-11-25T15:16:16.131Z,101342.88
2022-11-25T15:18:49.715Z,101349.06
2022-11-25T15:21:21.495Z,101350.72
2022-11-25T15:23:49.297Z,101346.13
2022-11-25T15:26:22.802Z,101348.34
2022-11-25T15:29:10.939Z,101350.25
2022-11-25T15:31:42.082Z,101349.78
2022-11-25T15:34:14.699Z,101352.69
2022-11-25T15:36:42.320Z,101348.69
2022-11-25T15:39:20.444Z,101350.56
2022-11-25T15:41:50.167Z,101345.75
2022-11-25T15:44:33.552Z,101358.38
2022-11-25T15:47:07.863Z,101350.28
2022-11-25T15:49:36.257Z,101357.91
2022-11-25T15:52:09.804Z,101363.41
2022-11-25T15:54:47.101Z,101363.06
2022-11-25T15:57:27.475Z,101375.78
2022-11-25T15:59:55.518Z,101379.97
2022-11-25T16:02:34.227Z,101385.16
2022-11-25T16:05:14.305Z,101381.75
2022-11-25T16:07:53.983Z,101384.22
2022-11-25T16:10:26.414Z,101392.69
2022-11-25T16:13:22.085Z,101399.28
2022-11-25T16:15:59.506Z,101397.06
2022-11-25T16:18:52.497Z,101402.81
2022-11-25T16:21:54.838Z,101393.34
2022-11-25T16:24:36.224Z,101404.25
2022-11-25T16:27:26.188Z,101403.00
2022-11-25T16:29:58.083Z,101398.47
2022-11-25T16:32:29.467Z,101402.44
2022-11-25T16:35:06.195Z,101404.34
2022-11-25T16:37:33.701Z,101401.53
2022-11-25T16:40:02.182Z,101389.22
2022-11-25T16:42:29.886Z,101402.91
2022-11-25T16:44:57.407Z,101397.44
2022-11-25T16:47:26.570Z,101407.50
2022-11-25T16:49:54.098Z,101400.91
2022-11-25T16:52:22.783Z,101403.25
2022-11-25T16:54:50.848Z,101398.00
2022-11-25T16:57:21.952Z,101399.00
2022-11-25T16:59:55.792Z,101391.69
2022-11-25T17:02:26.299Z,101388.03
2022-11-25T17:04:54.071Z,101396.19
2022-11-25T17:07:38.369Z,101395.69
2022-11-25T17:10:07.139Z,101393.34
2022-11-25T17:12:36.506Z,101395.59
2022-11-25T17:15:08.241Z,101392.53
2022-11-25T17:17:36.370Z,101389.59
2022-11-25T17:20:05.611Z,101394.38
2022-11-25T17:22:37.773Z,101392.44
2022-11-25T17:25:08.311Z,101398.84
2022-11-25T17:27:36.069Z,101394.66
2022-11-25T17:30:06.597Z,101402.63
2022-11-25T17:32:34.987Z,101402.06
2022-11-25T17:35:02.513Z,101404.66
2022-11-25T17:37:31.177Z,101402.97
2022-11-25T17:39:58.765Z,101416.81
2022-11-25T17:42:33.062Z,101425.00
2022-11-25T17:45:01.106Z,101422.75
2022-11-25T17:47:28.605Z,101426.84
2022-11-25T17:49:57.876Z,101434.81
2022-11-25T17:52:25.490Z,101433.97
2022-11-25T17:54:53.503Z,101439.59
2022-11-25T17:57:22.020Z,101437.13
2022-11-25T17:59:50.031Z,101435.66
2022-11-25T18:02:20.028Z,101432.03
2022-11-25T18:04:48.855Z,101434.06
2022-11-25T18:07:16.798Z,101442.41
2022-11-25T18:09:45.596Z,101442.84
2022-11-25T18:12:29.133Z,101441.69
2022-11-25T18:14:57.339Z,101446.88
2022-11-25T18:17:25.058Z,101444.00
2022-11-25T18:19:55.240Z,101445.56
2022-11-25T18:22:24.204Z,101447.25
2022-11-25T18:24:52.758Z,101449.50
2022-11-25T18:27:27.201Z,101449.09
2022-11-25T18:29:56.529Z,101446.84
2022-11-25T18:32:26.032Z,101453.06
2022-11-25T18:34:53.801Z,101458.16
2022-11-25T18:37:21.748Z,101460.84
2022-11-25T18:39:49.380Z,101462.59
2022-11-25T18:42:27.691Z,101460.28
2022-11-25T18:44:56.130Z,101458.50
2022-11-25T18:47:24.433Z,101456.59
2022-11-25T18:49:55.771Z,101476.66
2022-11-25T18:52:25.057Z,101481.63
2022-11-25T18:54:53.081Z,101479.31
2022-11-25T18:57:20.734Z,101478.22
2022-11-25T19:00:00.260Z,101475.38
2022-11-25T19:02:37.026Z,101483.94
2022-11-25T19:05:32.723Z,101482.31
2022-11-25T19:08:01.089Z,101491.91
2022-11-25T19:10:32.173Z,101486.59
2022-11-25T19:13:03.492Z,101483.88
2022-11-25T19:15:31.247Z,101481.25
2022-11-25T19:18:02.857Z,101488.19
2022-11-25T19:20:31.585Z,101493.13
2022-11-25T19:23:01.532Z,101481.94
2022-11-25T19:25:29.843Z,101482.88
2022-11-25T19:27:59.804Z,101478.06
2022-11-25T19:30:31.207Z,101480.75
2022-11-25T19:33:01.640Z,101482.16
2022-11-25T19:35:35.896Z,101468.09
2022-11-25T19:38:14.155Z,101471.50
2022-11-25T19:40:41.912Z,101483.97
2022-11-25T19:43:09.560Z,101478.63
2022-11-25T19:45:37.630Z,101485.47
2022-11-25T19:48:13.985Z,101486.28
2022-11-25T19:50:43.844Z,101493.56
2022-11-25T19:53:17.872Z,101493.44
2022-11-25T19:55:47.314Z,101495.19
2022-11-25T19:58:15.998Z,101498.53
2022-11-25T20:00:47.521Z,101502.97
2022-11-25T20:03:24.489Z,101514.38
2022-11-25T20:05:54.756Z,101514.31
2022-11-25T20:08:27.767Z,101517.72
2022-11-25T20:10:56.577Z,101527.75
2022-11-25T20:13:26.202Z,101536.59
2022-11-25T20:15:55.987Z,101519.44
2022-11-25T20:18:26.402Z,101515.63
2022-11-25T20:21:06.152Z,101525.97
2022-11-25T20:23:43.355Z,101514.22
2022-11-25T20:26:26.282Z,101517.50
2022-11-25T20:28:54.773Z,101513.47
2022-11-25T20:31:25.183Z,101512.69
2022-11-25T20:33:56.793Z,101513.34
2022-11-25T20:36:31.259Z,101516.09
2022-11-25T20:39:01.970Z,101505.47
2022-11-25T20:41:30.511Z,101515.97
2022-11-25T20:43:59.350Z,101519.50
2022-11-25T20:46:30.061Z,101520.00
2022-11-25T20:49:01.906Z,101529.59
2022-11-25T20:51:30.434Z,101530.31
2022-11-25T20:54:05.513Z,101538.34
2022-11-25T20:56:34.483Z,101541.13
2022-11-25T20:59:02.102Z,101542.22
2022-11-25T21:01:29.696Z,101543.91
2022-11-25T21:03:57.329Z,101546.97
2022-11-25T21:06:30.203Z,101551.16
2022-11-25T21:09:01.061Z,101560.72
2022-11-25T21:11:32.894Z,101566.91
2022-11-25T21:14:00.538Z,101564.06
2022-11-25T21:16:28.805Z,101559.00
2022-11-25T21:18:56.459Z,101556.72
2022-11-25T21:21:34.462Z,101553.16
2022-11-25T21:24:13.396Z,101540.31
2022-11-25T21:26:41.355Z,101539.00
2022-11-25T21:29:13.632Z,101532.66
2022-11-25T21:31:41.642Z,101533.97
2022-11-25T21:34:14.143Z,101540.81
2022-11-25T21:36:44.673Z,101543.44
2022-11-25T21:39:28.039Z,101546.31
2022-11-25T21:42:00.136Z,101554.63
2022-11-25T21:44:38.839Z,101566.03
2022-11-25T21:47:14.741Z,101573.63
2022-11-25T21:49:42.986Z,101575.44
2022-11-25T21:52:11.431Z,101582.44
2022-11-25T21:54:39.863Z,101590.84
2022-11-25T21:57:20.230Z,101587.59
2022-11-25T21:59:48.390Z,101591.16
2022-11-25T22:02:24.235Z,101588.72
2022-11-25T22:04:52.519Z,101580.50
2022-11-25T22:07:20.242Z,101584.56
2022-11-25T22:09:47.881Z,101574.22
2022-11-25T22:12:30.706Z,101574.00
2022-11-25T22:15:00.604Z,101583.28
2022-11-25T22:17:30.014Z,101578.06
2022-11-25T22:19:57.934Z,101589.56
2022-11-25T22:22:25.525Z,101589.25
2022-11-25T22:24:53.706Z,101588.56
2022-11-25T22:27:25.040Z,101587.34
2022-11-25T22:29:53.135Z,101585.22
2022-11-25T22:32:20.757Z,101591.06
2022-11-25T22:34:48.771Z,101587.69
2022-11-25T22:37:19.227Z,101593.28
2022-11-25T22:39:47.075Z,101602.94
2022-11-25T22:42:26.182Z,101599.00
2022-11-25T22:44:56.255Z,101602.34
2022-11-25T22:47:44.523Z,101608.22
2022-11-25T22:50:19.266Z,101611.19
2022-11-25T22:52:47.644Z,101607.53
2022-11-25T22:55:30.134Z,101610.56
2022-11-25T22:58:00.460Z,101602.41
2022-11-25T23:00:37.568Z,101597.03
2022-11-25T23:03:07.871Z,101592.59
2022-11-25T23:05:37.371Z,101589.09
2022-11-25T23:08:18.251Z,101590.84
2022-11-25T23:10:47.645Z,101585.25
2022-11-25T23:13:17.228Z,101592.28
2022-11-25T23:15:48.624Z,101588.75
2022-11-25T23:18:21.533Z,101582.44
2022-11-25T23:20:49.480Z,101588.75
2022-11-25T23:23:20.246Z,101582.69
2022-11-25T23:25:48.778Z,101591.06
2022-11-25T23:28:17.154Z,101587.59
2022-11-25T23:30:56.571Z,101584.28
2022-11-25T23:33:39.367Z,101593.47
2022-11-25T23:36:13.218Z,101593.38
2022-11-25T23:38:48.722Z,101594.91
2022-11-25T23:41:31.296Z,101586.13
2022-11-25T23:44:10.114Z,101587.00
2022-11-25T23:46:37.767Z,101593.59
2022-11-25T23:49:12.372Z,101601.19
2022-11-25T23:51:40.041Z,101590.84
2022-11-25T23:54:14.951Z,101599.28
2022-11-25T23:56:43.308Z,101589.34
2022-11-25T23:59:15.849Z,101595.13
